Data for 01/14/2006

Time Sea-Level Adjusted Pressure Absolute Pressure Temperature Relative Humidity Dew Point   
(mb) (inHg) (mb) (inHg) (C) (F) (%) (C) (F)
00:05 1012 29.88 841 24.83 4.6 40.2 57 -3.2 26.3
00:10 1012 29.88 841 24.83 4.7 40.4 57 -3.1 26.5
00:15 1012 29.88 841 24.83 4.9 40.9 56 -3.2 26.2
00:20 1012 29.88 841 24.83 5 41 56 -3 26.6
00:25 1012 29.88 841 24.83 5.1 41.1 55 -3.3 26.1
00:30 1012 29.88 841 24.83 5.2 41.3 55 -3 26.5
00:35 1012 29.88 841 24.83 5 41 56 -3 26.6
00:40 1012 29.88 841 24.83 4.9 40.8 56 -3.1 26.4
00:45 1012 29.88 841 24.83 4.9 40.8 56 -3.1 26.4
00:50 1012 29.88 841 24.83 5.1 41.2 56 -3.1 26.5
00:55 1012 29.88 841 24.83 5.1 41.2 55 -3.2 26.3
01:00 1012 29.88 841 24.83 5.5 41.9 53 -3.3 26
01:05 1012 29.88 841 24.83 5.5 41.9 53 -3.2 26.2
01:10 1012 29.88 841 24.83 5.6 42.1 53 -3.1 26.4
01:15 1012 29.88 841 24.83 5.4 41.6 55 -3 26.6
01:20 1012 29.88 841 24.83 5.2 41.3 55 -3.2 26.2
01:25 1012 29.88 841 24.83 5.2 41.4 55 -3 26.5
01:30 1012 29.88 841 24.83 5.1 41.2 55 -3.1 26.4
01:35 1012 29.88 841 24.83 5.2 41.3 55 -3.2 26.3
01:40 1012 29.88 841 24.83 5.3 41.6 55 -3 26.5
01:45 1012 29.88 841 24.83 5.1 41.2 55 -3.2 26.2
01:50 1012 29.88 841 24.83 5.2 41.3 55 -3.1 26.4
01:55 1012 29.88 841 24.83 5.2 41.3 55 -3 26.5
02:00 1012 29.88 841 24.83 5.2 41.3 55 -3.1 26.4
02:05 1012 29.88 841 24.83 5.2 41.4 54 -3.2 26.2
02:10 1012 29.88 841 24.83 5.1 41.2 56 -3 26.5
02:15 1012 29.88 841 24.83 5.2 41.4 55 -3.2 26.2
02:20 1012 29.88 841 24.83 5.4 41.7 53 -3.3 26
02:25 1012 29.88 841 24.83 5.7 42.2 53 -3.2 26.3
02:30 1011 29.85 841 24.83 5.8 42.4 53 -3.1 26.4
02:35 1011 29.85 841 24.83 5.7 42.3 53 -3.1 26.4
02:40 1011 29.85 840 24.81 5.6 42.1 53 -3.2 26.2
02:45 1011 29.85 840 24.81 5.6 42.1 53 -3.2 26.2
02:50 1011 29.85 840 24.81 5.7 42.2 53 -3.1 26.4
02:55 1011 29.85 840 24.81 5.7 42.2 53 -3.2 26.3
03:00 1011 29.85 840 24.81 5.7 42.2 53 -3.2 26.3
03:05 1011 29.85 840 24.81 5.6 42.1 53 -3.1 26.4
03:10 1011 29.85 840 24.81 5.7 42.2 53 -3.2 26.2
03:15 1011 29.85 840 24.81 5.8 42.5 52 -3.3 26.1
03:20 1011 29.85 840 24.81 6.2 43.2 51 -3.3 26.1
03:25 1011 29.85 840 24.81 6.6 43.9 49 -3.3 26.1
03:30 1011 29.85 840 24.81 6.8 44.3 49 -3.2 26.2
03:35 1011 29.85 840 24.81 6.8 44.2 49 -3.1 26.4
03:40 1011 29.85 840 24.81 6.8 44.2 49 -3.1 26.4
03:45 1011 29.85 840 24.81 6.9 44.3 49 -3 26.6
03:50 1011 29.85 840 24.81 6.8 44.3 49 -3.2 26.2
03:55 1011 29.85 840 24.81 6.9 44.5 48 -3.2 26.2
04:00 1011 29.85 840 24.81 6.9 44.5 49 -3 26.6
04:05 1011 29.85 840 24.81 6.6 43.9 51 -2.8 27
04:10 1011 29.85 840 24.81 6.5 43.7 50 -3.1 26.3
04:15 1011 29.85 840 24.81 5.9 42.7 56 -2.2 28.1
04:20 1011 29.85 840 24.81 4.2 39.6 63 -2.1 28.2
04:25 1011 29.85 840 24.81 3.6 38.4 63 -2.8 26.9
04:30 1011 29.85 840 24.81 3.9 39 62 -2.8 27
04:35 1011 29.85 840 24.81 4.2 39.5 61 -2.7 27.2
04:40 1011 29.85 840 24.81 4.2 39.6 60 -2.8 27
04:45 1011 29.85 840 24.81 4.8 40.7 56 -3.2 26.3
04:50 1011 29.85 840 24.81 5.2 41.4 56 -2.9 26.9
04:55 1010 29.83 840 24.81 5.3 41.6 56 -2.8 26.9
05:00 1010 29.83 840 24.81 5.5 41.9 54 -3.1 26.5
05:05 1010 29.83 840 24.81 5.6 42.2 55 -2.7 27.1
05:10 1010 29.83 840 24.81 5.6 42.1 54 -3 26.6
05:15 1010 29.83 839 24.78 6 42.8 53 -2.9 26.7
05:20 1010 29.83 839 24.78 5.9 42.6 53 -3 26.6
05:25 1010 29.83 839 24.78 6 42.9 53 -2.9 26.8
05:30 1010 29.83 839 24.78 6.2 43.1 52 -3 26.5
05:35 1010 29.83 839 24.78 6.2 43.2 51 -3.2 26.2
05:40 1010 29.83 839 24.78 6.4 43.5 51 -3 26.5
05:45 1010 29.83 839 24.78 6.5 43.7 50 -3.2 26.3
05:50 1010 29.83 839 24.78 6.5 43.7 50 -3.2 26.3
05:55 1010 29.83 839 24.78 6.5 43.6 51 -3 26.6
06:00 1010 29.83 839 24.78 6.3 43.3 51 -3.1 26.4
06:05 1010 29.83 839 24.78 6.3 43.4 51 -3.1 26.5
06:10 1010 29.83 839 24.78 6.2 43.2 52 -2.9 26.7
06:15 1010 29.83 839 24.78 6.2 43.1 52 -2.9 26.9
06:20 1010 29.83 839 24.78 5.8 42.5 53 -2.9 26.7
06:25 1010 29.83 839 24.78 5.7 42.3 53 -3 26.6
06:30 1010 29.83 839 24.78 5.8 42.4 52 -3.2 26.2
06:35 1010 29.83 839 24.78 6 42.7 52 -3.2 26.2
06:40 1010 29.83 839 24.78 6 42.9 51 -3.4 25.9
06:45 1010 29.83 839 24.78 6.2 43.2 51 -3.2 26.2
06:50 1010 29.83 839 24.78 6 42.8 51 -3.3 26
06:55 1010 29.83 839 24.78 6 42.9 51 -3.4 25.9
07:00 1010 29.83 839 24.78 6.3 43.3 49 -3.6 25.5
07:05 1010 29.83 839 24.78 6.5 43.6 49 -3.5 25.7
07:10 1010 29.83 839 24.78 6.5 43.7 49 -3.5 25.8
07:15 1010 29.83 839 24.78 6.3 43.4 50 -3.4 25.8
07:20 1010 29.83 839 24.78 5.9 42.6 54 -2.6 27.3
07:25 1010 29.83 839 24.78 5.4 41.7 52 -3.7 25.3
07:30 1010 29.83 839 24.78 5.5 41.8 56 -2.7 27.2
07:35 1010 29.83 839 24.78 4.6 40.2 59 -2.8 27
07:40 1010 29.83 839 24.78 4.4 39.9 58 -3.2 26.3
07:45 1010 29.83 839 24.78 4.9 40.8 55 -3.4 25.9
07:50 1010 29.83 839 24.78 5.2 41.3 55 -3.2 26.3
07:55 1010 29.83 839 24.78 5 41 54 -3.5 25.7
08:00 1009 29.8 839 24.78 5 41 54 -3.5 25.8
08:05 1009 29.8 839 24.78 5.5 41.9 51 -3.8 25.1
08:10 1009 29.8 839 24.78 5.6 42.1 51 -3.7 25.3
08:15 1009 29.8 839 24.78 5.5 41.9 51 -3.8 25.1
08:20 1009 29.8 839 24.78 5.9 42.5 49 -3.9 24.9
08:25 1009 29.8 839 24.78 5.9 42.6 50 -3.7 25.4
08:30 1009 29.8 838 24.75 5.8 42.4 49 -4 24.8
08:35 1009 29.8 838 24.75 5.8 42.4 50 -3.9 25
08:40 1009 29.8 838 24.75 6.1 42.9 48 -4.2 24.4
08:45 1009 29.8 838 24.75 6.3 43.4 47 -4 24.7
08:50 1009 29.8 838 24.75 6.5 43.7 47 -4 24.7
08:55 1009 29.8 838 24.75 6.5 43.7 46 -4.2 24.4
09:00 1009 29.8 838 24.75 6.7 44.1 45 -4.2 24.4
09:05 1009 29.8 838 24.75 6.8 44.2 45 -4.2 24.5
09:10 1009 29.8 838 24.75 6.9 44.5 44 -4.4 24.1
09:15 1009 29.8 838 24.75 7.5 45.4 43 -4.3 24.3
09:20 1009 29.8 838 24.75 7.6 45.6 44 -4 24.8
09:25 1009 29.8 838 24.75 7.6 45.6 43 -4.1 24.7
09:30 1009 29.8 838 24.75 7.7 45.9 43 -4.2 24.5
09:35 1009 29.8 838 24.75 8.1 46.6 41 -4.2 24.4
09:40 1009 29.8 838 24.75 8.1 46.6 42 -4 24.9
09:45 1009 29.8 838 24.75 8 46.5 42 -4 24.8
09:50 1009 29.8 838 24.75 8 46.5 43 -3.9 25.1
09:55 1009 29.8 838 24.75 8 46.5 42 -4 24.7
10:00 1009 29.8 838 24.75 8.1 46.5 43 -3.7 25.4
10:05 1009 29.8 838 24.75 8.2 46.7 41 -4.2 24.4
10:10 1009 29.8 838 24.75 8.3 46.9 43 -3.6 25.6
10:15 1008 29.77 838 24.75 8.3 47 42 -3.8 25.2
10:20 1008 29.77 838 24.75 8.6 47.4 41 -3.9 24.9
10:25 1008 29.77 838 24.75 8.7 47.7 40 -4 24.9
10:30 1008 29.77 838 24.75 8.7 47.7 40 -4 24.8
10:35 1008 29.77 837 24.72 8.7 47.7 40 -4.1 24.6
10:40 1008 29.77 837 24.72 8.6 47.4 40 -4.1 24.6
10:45 1008 29.77 837 24.72 8.7 47.6 39 -4.3 24.2
10:50 1008 29.77 837 24.72 8.8 47.9 39 -4.4 24.1
10:55 1008 29.77 837 24.72 8.9 48 39 -4.5 24
11:00 1008 29.77 837 24.72 9.5 49.1 36 -5 23
11:05 1008 29.77 837 24.72 9.6 49.2 37 -4.3 24.3
11:10 1008 29.77 837 24.72 10.2 50.3 35 -4.6 23.7
11:15 1008 29.77 837 24.72 10.8 51.5 33 -4.7 23.6
11:20 1007 29.74 837 24.72 11.5 52.7 30 -5.5 22.2
11:25 1007 29.74 836 24.69 11.4 52.6 29 -5.8 21.5
11:30 1007 29.74 836 24.69 11.5 52.6 29 -6 21.2
11:35 1007 29.74 836 24.69 11.7 53 29 -5.8 21.6
11:40 1007 29.74 836 24.69 11.7 53.1 28 -6 21.2
11:45 1007 29.74 836 24.69 12.2 53.9 29 -5.2 22.6
11:50 1007 29.74 836 24.69 12.7 54.8 29 -4.9 23.1
11:55 1007 29.74 836 24.69 12.7 54.9 29 -5 23.1
12:00 1007 29.74 836 24.69 12.4 54.4 28 -5.7 21.7
12:05 1007 29.74 836 24.69 12.1 53.8 30 -5 23.1
12:10 1007 29.74 836 24.69 11.9 53.4 30 -5.3 22.5
12:15 1006 29.71 836 24.69 12.2 54 31 -4.3 24.2
12:20 1006 29.71 836 24.69 12.1 53.8 32 -4.2 24.4
12:25 1006 29.71 836 24.69 12.1 53.7 33 -3.6 25.5
12:30 1006 29.71 835 24.66 11.1 52.1 35 -3.9 25
12:35 1006 29.71 835 24.66 11.1 51.9 36 -3.5 25.6
12:40 1006 29.71 835 24.66 11 51.9 35 -3.8 25.1
12:45 1006 29.71 835 24.66 11 51.7 34 -4.4 24.1
12:50 1006 29.71 835 24.66 11.1 52 35 -3.9 25
12:55 1006 29.71 835 24.66 11.2 52.2 36 -3.4 25.9
13:00 1006 29.71 835 24.66 11.5 52.6 35 -3.4 25.9
13:05 1006 29.71 835 24.66 11.3 52.3 35 -3.7 25.4
13:10 1006 29.71 835 24.66 10.9 51.6 37 -3.1 26.4
13:15 1006 29.71 835 24.66 10.4 50.8 38 -3.1 26.4
13:20 1006 29.71 835 24.66 9.1 48.4 43 -2.6 27.3
13:25 1006 29.71 835 24.66 8.8 47.9 45 -2.5 27.4
13:30 1006 29.71 835 24.66 8.5 47.4 48 -1.9 28.5
13:35 1005 29.68 835 24.66 8.3 46.9 41 -4.1 24.6
13:40 1005 29.68 834 24.63 9.1 48.3 45 -2.3 27.9
13:45 1005 29.68 834 24.63 9.2 48.5 43 -2.8 26.9
13:50 1005 29.68 834 24.63 9.2 48.6 42 -2.9 26.8
13:55 1005 29.68 834 24.63 10.2 50.3 33 -5.5 22.1
14:00 1005 29.68 834 24.63 11.1 52 29 -6.2 20.8
14:05 1005 29.68 834 24.63 12 53.5 28 -5.9 21.4
14:10 1005 29.68 834 24.63 11.6 52.9 35 -3.1 26.3
14:15 1005 29.68 834 24.63 11.4 52.5 33 -4.4 24.1
14:20 1005 29.68 834 24.63 11.3 52.3 36 -3 26.6
14:25 1005 29.68 834 24.63 11.3 52.4 36 -3 26.5
14:30 1005 29.68 834 24.63 10.8 51.5 36 -3.5 25.7
14:35 1005 29.68 834 24.63 10.5 51 38 -3.2 26.2
14:40 1005 29.68 834 24.63 10.7 51.3 35 -4 24.8
14:45 1005 29.68 834 24.63 10.8 51.5 37 -3.4 25.9
14:50 1005 29.68 834 24.63 10.8 51.5 35 -4 24.7
14:55 1005 29.68 834 24.63 10.6 51.1 34 -4.5 23.9
15:00 1005 29.68 834 24.63 10.7 51.3 32 -5.3 22.4
15:05 1005 29.68 834 24.63 11.2 52.2 31 -5.4 22.3
15:10 1005 29.68 834 24.63 11.5 52.7 30 -5.3 22.4
15:15 1005 29.68 834 24.63 11.2 52.1 28 -6.7 19.9
15:20 1005 29.68 834 24.63 11.1 52 31 -5.4 22.2
15:25 1005 29.68 834 24.63 10.9 51.5 30 -6 21.2
15:30 1005 29.68 834 24.63 10.3 50.6 32 -5.6 21.9
15:35 1004 29.65 834 24.63 10.1 50.2 31 -6.1 21.1
15:40 1004 29.65 834 24.63 9.9 49.8 33 -5.8 21.6
15:45 1004 29.65 833 24.6 9.8 49.7 31 -6.4 20.5
15:50 1004 29.65 834 24.63 9.8 49.7 33 -5.5 22
15:55 1004 29.65 834 24.63 9.5 49 34 -5.8 21.6
16:00 1004 29.65 833 24.6 9.5 49.1 34 -5.6 22
16:05 1004 29.65 833 24.6 9.6 49.2 31 -6.7 20
16:10 1004 29.65 833 24.6 9.9 49.8 29 -7.3 18.9
16:15 1004 29.65 833 24.6 10.6 51.1 31 -6 21.2
16:20 1004 29.65 833 24.6 10.1 50.1 33 -5.3 22.4
16:25 1004 29.65 833 24.6 9.7 49.5 30 -7 19.4
16:30 1004 29.65 833 24.6 10.4 50.8 30 -6.5 20.3
16:35 1004 29.65 833 24.6 9.7 49.5 32 -6.1 21
16:40 1004 29.65 833 24.6 10.1 50.3 31 -6.2 20.9
16:45 1004 29.65 833 24.6 9.3 48.7 35 -5.5 22.2
16:50 1004 29.65 833 24.6 8.9 48.1 36 -5.3 22.4
16:55 1004 29.65 833 24.6 8.6 47.4 38 -4.9 23.1
17:00 1004 29.65 833 24.6 8.4 47.2 37 -5.3 22.4
17:05 1004 29.65 833 24.6 9 48.3 35 -5.7 21.8
17:10 1004 29.65 833 24.6 8.8 47.8 37 -5.1 22.8
17:15 1004 29.65 833 24.6 8.9 48.1 36 -5.2 22.6
17:20 1004 29.65 833 24.6 8.9 47.9 37 -5.2 22.7
17:25 1004 29.65 833 24.6 8.8 47.9 37 -5.1 22.9
17:30 1004 29.65 833 24.6 9.3 48.8 34 -5.6 21.9
17:35 1004 29.65 833 24.6 9.2 48.6 34 -5.7 21.8
17:40 1004 29.65 833 24.6 9.4 49 34 -5.6 22
17:45 1004 29.65 833 24.6 9.2 48.6 36 -5.1 22.9
17:50 1004 29.65 833 24.6 9.6 49.2 32 -6.4 20.5
17:55 1004 29.65 833 24.6 10.1 50.2 32 -5.9 21.4
18:00 1004 29.65 833 24.6 9.5 49.2 34 -5.6 21.9
18:05 1004 29.65 833 24.6 9.4 48.9 33 -5.9 21.4
18:10 1003 29.62 833 24.6 9.4 48.8 33 -6 21.2
18:15 1003 29.62 833 24.6 9.2 48.6 36 -4.9 23.2
18:20 1003 29.62 833 24.6 8.3 47 38 -5.3 22.5
18:25 1003 29.62 833 24.6 8.8 47.8 34 -6.3 20.7
18:30 1003 29.62 833 24.6 9.1 48.4 35 -5.6 21.9
18:35 1003 29.62 833 24.6 8.7 47.7 35 -5.8 21.6
18:40 1003 29.62 833 24.6 9.5 49 32 -6.3 20.6
18:45 1003 29.62 833 24.6 9.1 48.4 33 -6.5 20.4
18:50 1003 29.62 833 24.6 9.3 48.8 35 -5.5 22.2
18:55 1003 29.62 833 24.6 8.5 47.3 35 -6.1 21
19:00 1003 29.62 833 24.6 9.1 48.4 34 -5.9 21.4
19:05 1003 29.62 833 24.6 8.9 48 35 -5.8 21.5
19:10 1003 29.62 833 24.6 8.7 47.7 36 -5.4 22.3
19:15 1004 29.65 833 24.6 8.4 47.1 38 -5.3 22.5
19:20 1003 29.62 833 24.6 8.7 47.7 34 -6.1 21
19:25 1003 29.62 832 24.57 8.9 48.1 34 -5.9 21.4
19:30 1003 29.62 832 24.57 8.9 48.1 33 -6.3 20.7
19:35 1003 29.62 832 24.57 9.4 48.9 32 -6.6 20.2
19:40 1003 29.62 832 24.57 9.7 49.4 31 -6.5 20.3
19:45 1003 29.62 833 24.6 9.7 49.5 32 -6.3 20.7
19:50 1003 29.62 833 24.6 9.8 49.6 31 -6.3 20.6
19:55 1003 29.62 833 24.6 9.5 49 34 -5.6 21.9
20:00 1003 29.62 832 24.57 9.3 48.7 32 -6.4 20.5
20:05 1003 29.62 832 24.57 9.3 48.8 35 -5.2 22.6
20:10 1003 29.62 832 24.57 8.4 47.1 39 -4.7 23.6
20:15 1003 29.62 832 24.57 7.7 45.9 39 -5.3 22.4
20:20 1003 29.62 832 24.57 7.9 46.1 38 -5.5 22.2
20:25 1003 29.62 832 24.57 7.9 46.2 38 -5.4 22.2
20:30 1003 29.62 832 24.57 7.8 46 36 -6.2 20.8
20:35 1003 29.62 832 24.57 8.3 47 37 -5.4 22.2
20:40 1003 29.62 832 24.57 8.1 46.6 38 -5.4 22.2
20:45 1003 29.62 832 24.57 8.5 47.4 33 -6.7 19.9
20:50 1003 29.62 832 24.57 8.8 47.8 33 -6.4 20.4
20:55 1003 29.62 832 24.57 9.2 48.5 33 -6.4 20.4
21:00 1003 29.62 832 24.57 9 48.3 34 -6.1 20.9
21:05 1003 29.62 832 24.57 8.9 48 34 -6.1 21.1
21:10 1003 29.62 832 24.57 9 48.1 33 -6.6 20.1
21:15 1003 29.62 832 24.57 9.1 48.4 33 -6.2 20.8
21:20 1003 29.62 832 24.57 8.9 48.1 33 -6.6 20.1
21:25 1002 29.59 832 24.57 9.1 48.3 32 -6.8 19.8
21:30 1002 29.59 831 24.54 9.1 48.4 34 -6 21.2
21:35 1002 29.59 831 24.54 8.9 48 34 -6.1 21.1
21:40 1002 29.59 831 24.54 8.8 47.9 33 -6.4 20.5
21:45 1002 29.59 831 24.54 8.7 47.6 35 -6 21.2
21:50 1002 29.59 831 24.54 8.3 46.9 37 -5.4 22.2
21:55 1002 29.59 831 24.54 7.9 46.2 38 -5.5 22.1
22:00 1002 29.59 831 24.54 7.7 45.8 39 -5.3 22.5
22:05 1002 29.59 831 24.54 7.5 45.5 38 -5.8 21.6
22:10 1002 29.59 831 24.54 7.7 45.8 37 -5.9 21.3
22:15 1002 29.59 831 24.54 7.7 45.9 39 -5.2 22.6
22:20 1002 29.59 831 24.54 7.6 45.6 38 -5.7 21.7
22:25 1002 29.59 831 24.54 7.9 46.1 37 -5.8 21.6
22:30 1002 29.59 831 24.54 7.9 46.3 36 -6.3 20.7
22:35 1002 29.59 831 24.54 8.1 46.6 37 -5.9 21.4
22:40 1002 29.59 831 24.54 8 46.4 36 -6.3 20.7
22:45 1002 29.59 831 24.54 7.7 45.9 40 -5.2 22.7
22:50 1002 29.59 831 24.54 7.2 44.9 41 -5.2 22.7
22:55 1002 29.59 831 24.54 6 42.8 45 -4.9 23.2
23:00 1002 29.59 831 24.54 6.2 43.2 42 -5.8 21.5
23:05 1002 29.59 831 24.54 6.6 43.9 41 -5.7 21.7
23:10 1002 29.59 831 24.54 6.8 44.2 41 -5.6 21.9
23:15 1002 29.59 831 24.54 6.8 44.2 41 -5.5 22.2
23:20 1002 29.59 831 24.54 6.6 43.8 43 -5.2 22.6
23:25 1002 29.59 831 24.54 6.4 43.5 42 -5.4 22.2
23:30 1002 29.59 831 24.54 6.4 43.5 43 -5.3 22.4
23:35 1002 29.59 831 24.54 6.2 43.1 45 -5 23
23:40 1002 29.59 831 24.54 5.9 42.7 46 -4.9 23.2
23:45 1002 29.59 831 24.54 5.9 42.6 46 -4.9 23.2
23:50 1002 29.59 831 24.54 5.8 42.5 46 -4.8 23.3
23:55 1002 29.59 831 24.54 5.8 42.4 46 -5 23
24:00 1002 29.59 831 24.54 5.9 42.6 46 -5 23